createdAt,value
2022-10-07T00:00:15.463Z,20.60
2022-10-07T00:03:37.749Z,20.50
2022-10-07T00:06:59.986Z,20.60
2022-10-07T00:10:22.306Z,20.60
2022-10-07T00:13:47.291Z,20.50
2022-10-07T00:17:09.471Z,20.50
2022-10-07T00:20:36.431Z,20.50
2022-10-07T00:23:59.263Z,20.60
2022-10-07T00:27:21.438Z,20.50
2022-10-07T00:30:43.714Z,20.50
2022-10-07T00:34:06.370Z,20.50
2022-10-07T00:37:28.665Z,20.50
2022-10-07T00:40:50.890Z,20.50
2022-10-07T00:44:31.870Z,20.50
2022-10-07T00:47:54.107Z,20.50
2022-10-07T00:51:16.809Z,20.50
2022-10-07T00:54:39.646Z,20.50
2022-10-07T00:58:09.356Z,20.50
2022-10-07T01:01:31.713Z,20.50
2022-10-07T01:04:56.381Z,20.50
2022-10-07T01:08:19.888Z,20.50
2022-10-07T01:11:56.927Z,20.50
2022-10-07T01:15:30.029Z,20.40
2022-10-07T01:19:24.100Z,20.50
2022-10-07T01:22:46.267Z,20.50
2022-10-07T01:26:09.366Z,20.40
2022-10-07T01:29:56.328Z,20.40
2022-10-07T01:33:23.839Z,20.40
2022-10-07T01:36:50.953Z,20.40
2022-10-07T01:40:17.995Z,20.40
2022-10-07T01:43:41.569Z,20.40
2022-10-07T01:47:03.909Z,20.40
2022-10-07T01:50:28.858Z,20.40
2022-10-07T01:53:51.084Z,20.40
2022-10-07T01:57:43.797Z,20.40
2022-10-07T02:01:14.874Z,20.30
2022-10-07T02:04:46.637Z,20.40
2022-10-07T02:08:39.167Z,20.30
2022-10-07T02:12:19.270Z,20.40
2022-10-07T02:15:53.493Z,20.30
2022-10-07T02:19:24.684Z,20.30
2022-10-07T02:22:48.274Z,20.30
2022-10-07T02:26:14.133Z,20.30
2022-10-07T02:29:38.254Z,20.30
2022-10-07T02:33:03.892Z,20.30
2022-10-07T02:36:37.797Z,20.30
2022-10-07T02:40:07.119Z,20.30
2022-10-07T02:43:46.634Z,20.30
2022-10-07T02:47:20.066Z,20.30
2022-10-07T02:50:45.694Z,20.30
2022-10-07T02:54:07.983Z,20.30
2022-10-07T02:57:38.246Z,20.20
2022-10-07T03:01:03.035Z,20.20
2022-10-07T03:04:26.785Z,20.20
2022-10-07T03:07:52.414Z,20.30
2022-10-07T03:11:14.733Z,20.30
2022-10-07T03:14:37.492Z,20.30
2022-10-07T03:18:02.311Z,20.20
2022-10-07T03:21:26.382Z,20.30
2022-10-07T03:24:50.806Z,20.20
2022-10-07T03:28:14.892Z,20.20
2022-10-07T03:31:37.789Z,20.20
2022-10-07T03:35:00.694Z,20.20
2022-10-07T03:38:22.976Z,20.20
2022-10-07T03:41:45.500Z,20.20
2022-10-07T03:45:08.128Z,20.20
2022-10-07T03:48:30.998Z,20.10
2022-10-07T03:51:53.523Z,20.10
2022-10-07T03:55:16.353Z,20.20
2022-10-07T03:58:39.326Z,20.10
2022-10-07T04:02:04.465Z,20.10
2022-10-07T04:05:27.727Z,20.20
2022-10-07T04:08:55.297Z,20.20
2022-10-07T04:12:17.758Z,20.10
2022-10-07T04:15:40.375Z,20.10
2022-10-07T04:19:02.925Z,20.10
2022-10-07T04:22:25.950Z,20.10
2022-10-07T04:25:48.280Z,20.10
2022-10-07T04:29:13.495Z,20.10
2022-10-07T04:32:36.420Z,20.10
2022-10-07T04:36:05.169Z,20.10
2022-10-07T04:39:48.934Z,20.10
2022-10-07T04:43:26.936Z,20.10
2022-10-07T04:46:56.914Z,20.10
2022-10-07T04:50:21.907Z,20.10
2022-10-07T04:53:44.161Z,20.00
2022-10-07T04:57:06.682Z,20.00
2022-10-07T05:00:29.191Z,20.00
2022-10-07T05:03:51.768Z,20.00
2022-10-07T05:07:14.566Z,20.00
2022-10-07T05:10:41.055Z,20.00
2022-10-07T05:14:03.540Z,20.00
2022-10-07T05:17:27.392Z,20.00
2022-10-07T05:20:51.056Z,20.00
2022-10-07T05:24:13.346Z,19.90
2022-10-07T05:27:35.885Z,20.10
2022-10-07T05:31:16.929Z,20.20
2022-10-07T05:34:45.040Z,20.20
2022-10-07T05:38:08.970Z,20.00
2022-10-07T05:41:31.373Z,19.90
2022-10-07T05:44:56.248Z,19.70
2022-10-07T05:48:18.765Z,19.50
2022-10-07T05:51:41.152Z,19.70
2022-10-07T05:55:05.585Z,19.80
2022-10-07T05:58:27.966Z,19.80
2022-10-07T06:01:51.520Z,19.80
2022-10-07T06:05:16.672Z,19.80
2022-10-07T06:08:39.247Z,19.90
2022-10-07T06:12:20.319Z,19.90
2022-10-07T06:15:44.215Z,19.90
2022-10-07T06:19:22.343Z,19.90
2022-10-07T06:22:46.665Z,19.90
2022-10-07T06:26:11.687Z,19.90
2022-10-07T06:29:34.217Z,20.00
2022-10-07T06:32:57.606Z,20.00
2022-10-07T06:36:20.613Z,20.10
2022-10-07T06:39:44.968Z,20.10
2022-10-07T06:43:07.931Z,20.10
2022-10-07T06:46:40.912Z,20.20
2022-10-07T06:50:03.806Z,20.20
2022-10-07T06:53:27.006Z,20.40
2022-10-07T06:56:50.053Z,20.50
2022-10-07T07:00:14.266Z,20.50
2022-10-07T07:03:38.757Z,20.60
2022-10-07T07:07:01.645Z,20.70
2022-10-07T07:10:24.165Z,20.80
2022-10-07T07:13:48.418Z,20.80
2022-10-07T07:17:11.576Z,20.80
2022-10-07T07:40:19.615Z,17.20
2022-10-07T07:43:41.946Z,16.50
2022-10-07T07:47:04.492Z,16.50
2022-10-07T07:50:27.428Z,16.50
2022-10-07T07:53:52.294Z,16.50
2022-10-07T07:57:14.786Z,16.50
2022-10-07T08:00:37.346Z,16.50
2022-10-07T08:04:01.312Z,16.50
2022-10-07T08:07:23.608Z,16.50
2022-10-07T08:10:51.025Z,16.50
2022-10-07T08:14:16.229Z,16.60
2022-10-07T08:17:39.175Z,16.70
2022-10-07T08:21:05.082Z,17.10
2022-10-07T08:24:28.697Z,17.30
2022-10-07T08:27:51.510Z,17.70
2022-10-07T08:31:15.693Z,18.10
2022-10-07T08:34:37.914Z,18.40
2022-10-07T08:38:00.095Z,18.80
2022-10-07T08:41:36.455Z,19.10
2022-10-07T08:44:59.850Z,19.20
2022-10-07T08:48:29.485Z,19.70
2022-10-07T08:52:00.361Z,20.10
2022-10-07T08:55:36.786Z,20.40
2022-10-07T08:59:24.058Z,20.60
2022-10-07T09:03:25.323Z,20.70
2022-10-07T09:07:00.585Z,20.70
2022-10-07T09:10:40.464Z,20.60
2022-10-07T09:14:26.241Z,20.60
2022-10-07T09:17:52.664Z,20.60
2022-10-07T09:21:23.445Z,20.50
2022-10-07T09:24:53.774Z,20.50
2022-10-07T09:28:18.975Z,20.50
2022-10-07T09:31:41.165Z,20.50
2022-10-07T09:35:06.083Z,20.60
2022-10-07T09:38:37.038Z,20.60
2022-10-07T09:41:59.383Z,20.60
2022-10-07T09:45:25.070Z,20.60
2022-10-07T09:48:52.950Z,20.60
2022-10-07T09:52:17.941Z,20.60
2022-10-07T09:55:42.937Z,20.50
2022-10-07T09:59:21.707Z,20.50
2022-10-07T10:02:49.372Z,20.60
2022-10-07T10:06:12.359Z,20.50
2022-10-07T10:09:35.180Z,20.50
2022-10-07T10:12:59.469Z,20.50
2022-10-07T10:16:24.453Z,20.60
2022-10-07T10:19:46.704Z,20.60
2022-10-07T10:23:33.259Z,20.60
2022-10-07T10:27:21.762Z,20.60
2022-10-07T10:30:57.834Z,20.60
2022-10-07T10:34:44.654Z,20.60
2022-10-07T10:38:25.090Z,20.60
2022-10-07T10:41:52.741Z,20.60
2022-10-07T10:45:37.741Z,20.60
2022-10-07T10:49:13.008Z,20.60
2022-10-07T10:53:02.779Z,20.60
2022-10-07T10:56:40.497Z,20.60
2022-10-07T11:00:09.249Z,20.60
2022-10-07T11:03:49.439Z,20.60
2022-10-07T11:07:24.929Z,20.70
2022-10-07T11:10:50.174Z,20.70
2022-10-07T11:14:22.696Z,20.70
2022-10-07T11:17:49.530Z,20.70
2022-10-07T11:21:27.055Z,20.80
2022-10-07T11:24:56.840Z,20.70
2022-10-07T11:28:26.806Z,20.70
2022-10-07T11:32:21.156Z,20.80
2022-10-07T11:35:51.004Z,20.80
2022-10-07T11:39:13.261Z,20.80
2022-10-07T11:42:44.354Z,20.80
2022-10-07T11:46:34.016Z,20.80
2022-10-07T11:50:14.159Z,20.80
2022-10-07T11:53:39.968Z,20.80
2022-10-07T11:57:02.255Z,20.80
2022-10-07T12:00:25.838Z,20.80
2022-10-07T12:03:48.585Z,20.90
2022-10-07T12:07:32.978Z,20.90
2022-10-07T12:10:57.098Z,20.90
2022-10-07T12:14:44.619Z,20.90
2022-10-07T12:18:06.787Z,20.90
2022-10-07T12:21:51.006Z,20.90
2022-10-07T12:25:32.377Z,20.90
2022-10-07T12:28:57.350Z,20.90
2022-10-07T12:32:51.096Z,20.90
2022-10-07T12:36:23.711Z,20.90
2022-10-07T12:39:47.171Z,20.90
2022-10-07T12:43:34.434Z,20.90
2022-10-07T12:47:18.430Z,20.90
2022-10-07T12:50:42.145Z,21.00
2022-10-07T12:54:14.861Z,21.00
2022-10-07T12:57:39.872Z,21.00
2022-10-07T13:01:26.308Z,21.00
2022-10-07T13:05:10.386Z,21.00
2022-10-07T13:08:38.591Z,21.00
2022-10-07T13:12:04.429Z,21.00
2022-10-07T13:15:44.459Z,21.00
2022-10-07T13:19:22.861Z,21.00
2022-10-07T13:22:49.463Z,21.10
2022-10-07T13:26:13.123Z,21.00
2022-10-07T13:29:35.445Z,21.10
2022-10-07T13:33:19.473Z,21.10
2022-10-07T13:36:45.576Z,21.00
2022-10-07T13:40:28.241Z,21.00
2022-10-07T13:43:54.580Z,21.00
2022-10-07T13:47:21.470Z,21.10
2022-10-07T13:50:44.436Z,21.10
2022-10-07T13:54:17.976Z,21.10
2022-10-07T13:57:44.010Z,21.10
2022-10-07T14:01:06.527Z,21.00
2022-10-07T14:04:33.190Z,21.00
2022-10-07T14:08:00.777Z,21.00
2022-10-07T14:11:23.045Z,21.00
2022-10-07T14:14:52.299Z,21.00
2022-10-07T14:18:16.946Z,21.00
2022-10-07T14:21:43.058Z,20.90
2022-10-07T14:25:16.705Z,20.80
2022-10-07T14:28:40.602Z,20.80
2022-10-07T14:32:50.731Z,20.80
2022-10-07T14:36:20.785Z,20.80
2022-10-07T14:39:47.729Z,20.70
2022-10-07T14:43:10.035Z,20.70
2022-10-07T14:46:32.312Z,20.70
2022-10-07T14:49:56.496Z,20.70
2022-10-07T14:53:18.662Z,20.70
2022-10-07T14:56:40.857Z,20.70
2022-10-07T15:00:11.410Z,20.60
2022-10-07T15:03:34.835Z,20.60
2022-10-07T15:06:58.026Z,20.60
2022-10-07T15:10:23.278Z,20.60
2022-10-07T15:13:49.827Z,20.70
2022-10-07T15:17:12.321Z,20.70
2022-10-07T15:20:34.759Z,20.80
2022-10-07T15:23:57.422Z,20.90
2022-10-07T15:27:19.899Z,20.90
2022-10-07T15:30:42.154Z,20.90
2022-10-07T15:34:04.776Z,20.90
2022-10-07T15:37:28.164Z,20.90
2022-10-07T15:40:55.677Z,21.00
2022-10-07T15:44:24.508Z,20.90
2022-10-07T15:47:46.698Z,21.00
2022-10-07T15:51:08.882Z,20.90
2022-10-07T15:54:31.918Z,21.00
2022-10-07T15:57:54.125Z,20.90
2022-10-07T16:01:16.328Z,21.00
2022-10-07T16:04:39.937Z,20.90
2022-10-07T16:08:02.762Z,21.00
2022-10-07T16:11:26.741Z,21.00
2022-10-07T16:14:49.258Z,21.00
2022-10-07T16:18:11.467Z,21.00
2022-10-07T16:21:36.697Z,21.00
2022-10-07T16:24:58.906Z,21.00
2022-10-07T16:28:39.918Z,21.00
2022-10-07T16:32:02.796Z,21.00
2022-10-07T16:35:25.153Z,21.00
2022-10-07T16:38:48.290Z,21.00
2022-10-07T16:42:10.556Z,21.00
2022-10-07T16:45:32.818Z,21.00
2022-10-07T16:48:55.526Z,21.00
2022-10-07T16:52:17.868Z,21.00
2022-10-07T16:55:40.070Z,21.00
2022-10-07T16:59:05.934Z,21.00
2022-10-07T17:02:33.258Z,21.00
2022-10-07T17:05:56.842Z,21.00
2022-10-07T17:09:19.741Z,21.10
2022-10-07T17:12:43.250Z,21.10
2022-10-07T17:16:05.889Z,21.10
2022-10-07T17:19:28.971Z,21.10
2022-10-07T17:22:51.130Z,21.20
2022-10-07T17:26:14.201Z,21.20
2022-10-07T17:29:38.375Z,21.30
2022-10-07T17:33:00.775Z,21.30
2022-10-07T17:36:23.615Z,21.20
2022-10-07T17:39:45.883Z,21.30
2022-10-07T17:43:08.043Z,21.30
2022-10-07T17:46:33.067Z,21.30
2022-10-07T17:49:55.384Z,21.30
2022-10-07T17:53:17.489Z,21.30
2022-10-07T17:56:39.686Z,21.40
2022-10-07T18:00:04.524Z,21.30
2022-10-07T18:03:34.220Z,21.30
2022-10-07T18:06:56.477Z,21.30
2022-10-07T18:10:20.672Z,21.30
2022-10-07T18:14:02.460Z,21.30
2022-10-07T18:17:24.911Z,21.30
2022-10-07T18:20:47.935Z,21.30
2022-10-07T18:24:10.087Z,21.30
2022-10-07T18:27:32.325Z,21.30
2022-10-07T18:30:54.863Z,21.30
2022-10-07T18:34:17.030Z,21.30
2022-10-07T18:37:39.229Z,21.30
2022-10-07T18:41:03.493Z,21.30
2022-10-07T18:44:26.210Z,21.30
2022-10-07T18:47:48.763Z,21.30
2022-10-07T18:51:12.729Z,21.30
2022-10-07T18:54:34.923Z,21.30
2022-10-07T18:57:57.042Z,21.30
2022-10-07T19:01:22.170Z,21.30
2022-10-07T19:04:44.254Z,21.20
2022-10-07T19:08:06.822Z,21.20
2022-10-07T19:11:30.447Z,21.10
2022-10-07T19:14:52.650Z,21.10
2022-10-07T19:18:14.812Z,21.10
2022-10-07T19:21:36.957Z,21.10
2022-10-07T19:25:17.746Z,21.00
2022-10-07T19:28:41.069Z,21.00
2022-10-07T19:32:07.871Z,21.00
2022-10-07T19:35:33.042Z,21.00
2022-10-07T19:38:58.399Z,21.00
2022-10-07T19:42:20.524Z,21.00
2022-10-07T19:45:43.676Z,21.00
2022-10-07T19:49:07.306Z,21.00
2022-10-07T19:52:29.438Z,21.00
2022-10-07T19:55:51.641Z,21.00
2022-10-07T19:59:15.027Z,21.00
2022-10-07T20:02:37.269Z,21.00
2022-10-07T20:06:05.945Z,21.00
2022-10-07T20:09:28.210Z,21.00
2022-10-07T20:12:50.782Z,21.00
2022-10-07T20:16:14.777Z,21.00
2022-10-07T20:19:37.877Z,20.90
2022-10-07T20:23:01.009Z,20.90
2022-10-07T20:26:32.374Z,20.90
2022-10-07T20:29:57.284Z,20.90
